Weather reports worldwide

Advertisment
Wick Airport, United Kingdom (2003075): temperature & dewpoint: 16.04.2018 15:00:00 - 22.04.2018 15:00:00 (BST)Wick Airport, United Kingdom (2003075): wind speed: 16.04.2018 15:00:00 - 22.04.2018 15:00:00 (BST)Wick Airport, United Kingdom (2003075): wind direction: 16.04.2018 15:00:00 - 22.04.2018 15:00:00 (BST)Wick Airport, United Kingdom (2003075): visibility: 16.04.2018 15:00:00 - 22.04.2018 15:00:00 (BST)
Date & Time tt [°C] td [°C] ff [km/h] ff [kn] dd vv [km]
22.04.2018 15:00:00 11,0 7,0 18 10 W 10
22.04.2018 14:00:00 12,0 7,0 28 15 W 10
22.04.2018 13:00:00 12,0 7,0 15 8 WSW 10
22.04.2018 12:00:00 15,0 6,0 18 10 SW 10
22.04.2018 11:00:00 11,0 9,0 9 5 S 9
22.04.2018 10:00:00 9,0 8,0 13 7 S 5
22.04.2018 09:00:00 8,0 7,0 13 7 S 3,6
22.04.2018 08:00:00 8,0 7,0 15 8 S 4,2
22.04.2018 07:00:00 8,0 7,0 11 6 S 3,7
22.04.2018 06:00:00 7,0 7,0 13 7 S 3,5
22.04.2018 05:00:00 7,0 7,0 13 7 S 4,4
22.04.2018 04:00:00 7,0 7,0 9 5 S 5
22.04.2018 03:00:00 8,0 7,0 16 9 SSE 5
22.04.2018 02:00:00 8,0 7,0 13 7 SSE 7
22.04.2018 01:00:00 9,0 6,0 8 4 S 10
22.04.2018 00:00:00 9,0 6,0 15 8 S 10
21.04.2018 23:00:00 10,0 6,0 18 10 S 10
21.04.2018 22:00:00 11,0 7,0 16 9 S 10
21.04.2018 21:00:00 8,0 7,0 11 6 SSE 10
21.04.2018 20:00:00 8,0 7,0 9 5 SSE 10
21.04.2018 19:00:00 9,0 7,0 11 6 SSE 10
21.04.2018 18:00:00 9,0 7,0 18 10 SE 10
21.04.2018 17:00:00 8,0 6,0 18 10 SE 10
21.04.2018 16:00:00 9,0 6,0 18 10 SE 10
21.04.2018 15:00:00 10,0 5,0 26 14 SE 10
21.04.2018 14:00:00 9,0 5,0 21 11 SSE 10
21.04.2018 13:00:00 10,0 6,0 13 7 SSE 10
21.04.2018 12:00:00 10,0 6,0 13 7 S 10
21.04.2018 11:00:00 10,0 6,0 13 7 S 10
21.04.2018 10:00:00 10,0 6,0 13 7 S 10
21.04.2018 09:00:00 10,0 6,0 8 4 S 10
21.04.2018 08:00:00 9,0 5,0 5 3 - 10
21.04.2018 07:00:00 6,0 4,0 4 2 - 10
21.04.2018 06:00:00 5,0 3,0 4 2 - 10
21.04.2018 05:00:00 5,0 3,0 4 2 WSW 10
21.04.2018 04:00:00 4,0 3,0 8 4 W 10
21.04.2018 03:00:00 6,0 4,0 5 3 W 10
21.04.2018 02:00:00 5,0 3,0 4 2 S 10
21.04.2018 01:00:00 5,0 4,0 4 2 - 10
21.04.2018 00:00:00 7,0 4,0 11 6 W 10
20.04.2018 23:00:00 8,0 4,0 5 3 WSW 10
20.04.2018 22:00:00 8,0 5,0 0 0 N 10
20.04.2018 21:00:00 9,0 6,0 4 2 - 10
20.04.2018 20:00:00 10,0 6,0 18 10 NW 10
20.04.2018 19:00:00 12,0 5,0 34 18 W 10
20.04.2018 18:00:00 12,0 6,0 34 18 W 10
20.04.2018 17:00:00 13,0 6,0 31 17 W 10
20.04.2018 16:00:00 14,0 5,0 24 13 W 10
20.04.2018 15:00:00 15,0 5,0 34 18 W 10
20.04.2018 14:00:00 15,0 4,0 31 17 W 10
20.04.2018 13:00:00 14,0 6,0 34 18 W 10
20.04.2018 12:00:00 14,0 6,0 18 10 SW 10
20.04.2018 11:00:00 12,0 7,0 15 8 S 10
20.04.2018 10:00:00 13,0 7,0 16 9 SSW 10
20.04.2018 09:00:00 12,0 7,0 18 10 SSW 10
20.04.2018 08:00:00 11,0 6,0 8 4 SSW 10
20.04.2018 07:00:00 10,0 5,0 9 5 WSW 10
20.04.2018 06:00:00 8,0 5,0 8 4 NW 10
20.04.2018 05:00:00 9,0 5,0 5 3 - 10
20.04.2018 04:00:00 9,0 4,0 4 2 SW 10
20.04.2018 03:00:00 10,0 4,0 4 2 WSW 10
20.04.2018 02:00:00 11,0 4,0 9 5 W 10
20.04.2018 01:00:00 9,0 7,0 5 3 S 10
20.04.2018 00:00:00 10,0 6,0 5 3 SW 10
19.04.2018 23:00:00 10,0 8,0 4 2 - 10
19.04.2018 22:00:00 9,0 8,0 4 2 - 10
19.04.2018 21:00:00 10,0 8,0 4 2 E 10
19.04.2018 20:00:00 11,0 8,0 8 4 NE 10
19.04.2018 19:00:00 11,0 9,0 9 5 NE 10
19.04.2018 18:00:00 12,0 9,0 8 4 ENE 10
19.04.2018 17:00:00 14,0 10,0 13 7 ENE 10
19.04.2018 16:00:00 15,0 10,0 9 5 ENE 10
19.04.2018 15:00:00 16,0 10,0 15 8 S 10
19.04.2018 14:00:00 17,0 9,0 22 12 SSW 10
19.04.2018 13:00:00 17,0 9,0 24 13 SW 10
19.04.2018 12:00:00 16,0 10,0 16 9 SSW 10
19.04.2018 11:00:00 15,0 10,0 13 7 SSW 10
19.04.2018 10:00:00 14,0 9,0 11 6 S 10
19.04.2018 09:00:00 12,0 8,0 11 6 SSW 10
19.04.2018 08:00:00 11,0 8,0 16 9 S 10
19.04.2018 07:00:00 10,0 8,0 16 9 S 10
19.04.2018 06:00:00 10,0 8,0 22 12 S 10
19.04.2018 05:00:00 10,0 8,0 11 6 SSW 10
19.04.2018 04:00:00 10,0 8,0 22 12 S 10
19.04.2018 03:00:00 10,0 8,0 24 13 S 10
19.04.2018 02:00:00 10,0 8,0 21 11 S 10
19.04.2018 01:00:00 10,0 8,0 28 15 SSE 10
19.04.2018 00:00:00 10,0 8,0 24 13 S 10
18.04.2018 23:00:00 10,0 8,0 31 17 S 10
18.04.2018 22:00:00 11,0 9,0 29 16 SSE 10
18.04.2018 21:00:00 10,0 8,0 21 11 S 10
18.04.2018 20:00:00 10,0 8,0 22 12 S 10
18.04.2018 19:00:00 10,0 8,0 22 12 S 10
18.04.2018 18:00:00 11,0 8,0 18 10 S 10
18.04.2018 17:00:00 11,0 8,0 18 10 S 10
18.04.2018 16:00:00 11,0 9,0 21 11 S 10
18.04.2018 15:00:00 12,0 9,0 22 12 S 10
18.04.2018 14:00:00 13,0 9,0 18 10 S 10
18.04.2018 13:00:00 12,0 8,0 26 14 S 10
18.04.2018 12:00:00 13,0 9,0 15 8 S 10
18.04.2018 11:00:00 12,0 8,0 24 13 S 10
18.04.2018 10:00:00 11,0 7,0 24 13 S 10
18.04.2018 09:00:00 10,0 7,0 16 9 S 10
18.04.2018 08:00:00 9,0 7,0 15 8 S 10
18.04.2018 07:00:00 10,0 7,0 13 7 SSW 10
18.04.2018 06:00:00 - - - - - -
18.04.2018 05:00:00 - - - - - -
18.04.2018 04:00:00 - - - - - -
18.04.2018 03:00:00 - - - - - -
18.04.2018 02:00:00 10,0 7,0 16 9 SSW 10
18.04.2018 01:00:00 11,0 7,0 18 10 SSW 10
18.04.2018 00:00:00 10,0 7,0 16 9 SSW 10
17.04.2018 23:00:00 11,0 7,0 21 11 SSW 10
17.04.2018 22:00:00 12,0 7,0 18 10 SSW 10
17.04.2018 21:00:00 12,0 6,0 22 12 SW 10
17.04.2018 20:00:00 13,0 7,0 18 10 SSW 10
17.04.2018 19:00:00 13,0 7,0 18 10 SSW 10
17.04.2018 18:00:00 13,0 7,0 18 10 S 10
17.04.2018 17:00:00 15,0 7,0 24 13 SSW 10
17.04.2018 16:00:00 14,0 7,0 18 10 SSW 10
17.04.2018 15:00:00 15,0 7,0 24 13 S 10
17.04.2018 14:00:00 13,0 8,0 22 12 S 10
17.04.2018 13:00:00 11,0 8,0 22 12 S 10
17.04.2018 12:00:00 10,0 7,0 28 15 S 10
17.04.2018 11:00:00 9,0 7,0 29 16 SSE 10
17.04.2018 10:00:00 8,0 7,0 37 20 SSE 10
17.04.2018 09:00:00 8,0 6,0 46 25 S 10
17.04.2018 08:00:00 8,0 6,0 39 21 SSE 6
17.04.2018 07:00:00 8,0 6,0 41 22 SSE 7
17.04.2018 06:00:00 8,0 6,0 46 25 SSE 7
17.04.2018 05:00:00 8,0 6,0 39 21 SSE 10
17.04.2018 04:00:00 8,0 5,0 34 18 SSE 10
17.04.2018 03:00:00 8,0 6,0 35 19 SSE 10
17.04.2018 02:00:00 8,0 6,0 28 15 SSE 10
17.04.2018 01:00:00 8,0 6,0 24 13 SSE 10
17.04.2018 00:00:00 8,0 6,0 24 13 S 10
16.04.2018 23:00:00 9,0 6,0 21 11 S 10
16.04.2018 22:00:00 8,0 6,0 11 6 S 10
16.04.2018 21:00:00 9,0 7,0 11 6 S 10
16.04.2018 20:00:00 7,0 6,0 4 2 SSE 10
16.04.2018 19:00:00 8,0 7,0 5 3 S 4,0
16.04.2018 18:00:00 7,0 7,0 11 6 SE 0,1
16.04.2018 17:00:00 7,0 7,0 13 7 SE 0,2
16.04.2018 16:00:00 7,0 7,0 13 7 SSE 0,1
16.04.2018 15:00:00 7,0 7,0 16 9 SE 0,2

tt = temperature
td = dewpoint
ff = wind speed
dd = wind direction
vv = visibility

Next stations